RKSY/SSN METAR and TAF weather

Enter ICAO airport designator
Station Type Date Time Source
RKSY METAR 2019/02/20 03:28 UTC NOAA

RKSY 200328Z AUTO 00000KT 6000 HZ BKN027 OVC034 04/M03 A3027 RMK AO2 SLP254


Station Type Date Time Source
RKSY Decoded METAR 2019/02/20 03:28 UTC NOAA

Yongsan / H-208 Hp, Korea, South (RKSY) 37-31N 126-59E
Feb 19, 2019 - 10:28 PM EST / 2019.02.20 0328 UTC
Wind: Calm:0
Visibility: 3 mile(s):0
Sky conditions: overcast
Weather: haze
Temperature: 39 F (4 C)
Dew Point: 26 F (-3 C)
Relative Humidity: 60%
Pressure (altimeter): 30.27 in. Hg (1025 hPa)
ob: RKSY 200328Z AUTO 00000KT 6000 HZ BKN027 OVC034 04/M03 A3027 RMK AO2 SLP254
cycle: 3

Station Type Date Time Source
RKSY TAF UTC NOAA

Error!


Example: see airport list